createdAt,value
2023-01-04T00:01:26.593Z,99398.41
2023-01-04T00:03:54.344Z,99404.34
2023-01-04T00:06:22.443Z,99393.53
2023-01-04T00:08:50.266Z,99401.66
2023-01-04T00:11:19.855Z,99406.50
2023-01-04T00:13:48.568Z,99410.84
2023-01-04T00:16:20.012Z,99411.38
2023-01-04T00:18:48.057Z,99409.19
2023-01-04T00:21:17.571Z,99400.84
2023-01-04T00:23:47.286Z,99405.97
2023-01-04T00:26:16.378Z,99404.34
2023-01-04T00:28:50.075Z,99400.56
2023-01-04T00:31:23.863Z,99403.00
2023-01-04T00:33:51.989Z,99390.88
2023-01-04T00:36:19.623Z,99397.34
2023-01-04T00:38:47.254Z,99399.47
2023-01-04T00:41:34.714Z,99396.25
2023-01-04T00:44:04.402Z,99397.88
2023-01-04T00:46:33.877Z,99397.59
2023-01-04T00:49:01.979Z,99390.31
2023-01-04T00:51:30.710Z,99385.72
2023-01-04T00:53:58.837Z,99384.09
2023-01-04T00:56:26.432Z,99374.13
2023-01-04T00:58:55.823Z,99367.66
2023-01-04T01:01:24.512Z,99366.56
2023-01-04T01:03:55.853Z,99367.63
2023-01-04T01:06:24.853Z,99371.94
2023-01-04T01:08:53.080Z,99370.59
2023-01-04T01:11:22.002Z,99375.72
2023-01-04T01:13:50.059Z,99371.97
2023-01-04T01:16:37.986Z,99370.34
2023-01-04T01:19:09.888Z,99365.19
2023-01-04T01:21:37.962Z,99376.78
2023-01-04T01:24:06.607Z,99380.28
2023-01-04T01:26:34.390Z,99379.50
2023-01-04T01:29:02.111Z,99375.69
2023-01-04T01:31:30.448Z,99377.84
2023-01-04T01:33:58.525Z,99386.94
2023-01-04T01:36:27.690Z,99388.03
2023-01-04T01:38:55.774Z,99385.84
2023-01-04T01:41:25.447Z,99381.56
2023-01-04T01:43:56.483Z,99383.69
2023-01-04T01:46:28.112Z,99374.00
2023-01-04T01:49:00.758Z,99370.75
2023-01-04T01:51:31.689Z,99383.72
2023-01-04T01:54:05.434Z,99382.09
2023-01-04T01:56:36.899Z,99389.91
2023-01-04T01:59:05.147Z,99387.44
2023-01-04T02:01:34.193Z,99393.91
2023-01-04T02:04:03.883Z,99389.56
2023-01-04T02:06:36.840Z,99382.56
2023-01-04T02:09:04.770Z,99378.81
2023-01-04T02:11:32.606Z,99378.75
2023-01-04T02:14:21.865Z,99378.78
2023-01-04T02:17:03.804Z,99379.31
2023-01-04T02:19:53.972Z,99376.78
2023-01-04T02:23:15.383Z,99377.13
2023-01-04T02:26:17.789Z,99375.03
2023-01-04T02:29:21.140Z,99366.41
2023-01-04T02:31:55.220Z,99351.34
2023-01-04T02:34:33.548Z,99357.50
2023-01-04T02:37:09.411Z,99352.88
2023-01-04T02:39:47.117Z,99359.94
2023-01-04T02:42:21.239Z,99359.41
2023-01-04T02:44:53.207Z,99362.06
2023-01-04T02:47:40.909Z,99370.75
2023-01-04T02:50:33.245Z,99383.16
2023-01-04T02:53:07.415Z,99378.31
2023-01-04T02:55:47.918Z,99373.75
2023-01-04T02:58:33.981Z,99376.97
2023-01-04T03:01:28.675Z,99369.44
2023-01-04T03:04:30.002Z,99366.50
2023-01-04T03:07:04.290Z,99365.44
2023-01-04T03:09:36.534Z,99360.03
2023-01-04T03:12:26.552Z,99356.28
2023-01-04T03:15:00.369Z,99360.59
2023-01-04T03:17:33.289Z,99345.47
2023-01-04T03:20:03.433Z,99348.19
2023-01-04T03:22:55.188Z,99339.03
2023-01-04T03:25:46.640Z,99334.16
2023-01-04T03:28:35.059Z,99333.09
2023-01-04T03:31:27.412Z,99333.91
2023-01-04T03:34:12.816Z,99339.03
2023-01-04T03:36:59.384Z,99334.16
2023-01-04T03:39:53.680Z,99328.22
2023-01-04T03:42:46.490Z,99329.31
2023-01-04T03:45:35.779Z,99327.69
2023-01-04T03:48:30.282Z,99321.47
2023-01-04T03:51:05.630Z,99314.19
2023-01-04T03:53:41.003Z,99308.78
2023-01-04T03:56:11.991Z,99306.63
2023-01-04T03:58:40.229Z,99307.13
2023-01-04T04:01:08.617Z,99294.72
2023-01-04T04:03:53.999Z,99293.66
2023-01-04T04:06:39.020Z,99285.03
2023-01-04T04:09:08.099Z,99277.97
2023-01-04T04:11:35.831Z,99270.38
2023-01-04T04:14:03.459Z,99273.16
2023-01-04T04:16:31.208Z,99274.25
2023-01-04T04:19:01.939Z,99280.16
2023-01-04T04:21:34.556Z,99276.66
2023-01-04T04:24:02.260Z,99275.84
2023-01-04T04:26:31.268Z,99269.38
2023-01-04T04:28:59.070Z,99266.69
2023-01-04T04:31:26.749Z,99258.84
2023-01-04T04:33:54.445Z,99259.63
2023-01-04T04:36:22.151Z,99250.22
2023-01-04T04:38:49.815Z,99265.03
2023-01-04T04:41:34.954Z,99269.34
2023-01-04T04:44:03.969Z,99259.56
2023-01-04T04:46:31.621Z,99253.94
2023-01-04T04:48:59.410Z,99255.31
2023-01-04T04:51:27.087Z,99255.31
2023-01-04T04:53:54.877Z,99248.28
2023-01-04T04:56:22.873Z,99247.78
2023-01-04T04:58:51.150Z,99244.50
2023-01-04T05:01:20.829Z,99233.69
2023-01-04T05:03:48.835Z,99238.28
2023-01-04T05:06:16.671Z,99227.97
2023-01-04T05:08:44.346Z,99229.38
2023-01-04T05:11:13.403Z,99232.63
2023-01-04T05:13:40.615Z,99222.84
2023-01-04T05:16:10.667Z,99216.34
2023-01-04T05:18:39.821Z,99221.75
2023-01-04T05:21:07.507Z,99225.00
2023-01-04T05:23:35.150Z,99223.94
2023-01-04T05:26:03.854Z,99225.53
2023-01-04T05:28:31.552Z,99233.56
2023-01-04T05:30:58.285Z,99228.19
2023-01-04T05:33:27.929Z,99226.03
2023-01-04T05:36:01.851Z,99223.56
2023-01-04T05:38:30.007Z,99222.44
2023-01-04T05:40:58.091Z,99221.59
2023-01-04T05:43:25.190Z,99217.28
2023-01-04T05:45:54.870Z,99214.84
2023-01-04T05:48:24.792Z,99216.75
2023-01-04T05:50:53.724Z,99215.66
2023-01-04T05:53:22.849Z,99220.53
2023-01-04T05:55:50.523Z,99217.56
2023-01-04T05:58:18.255Z,99218.97
2023-01-04T06:00:45.904Z,99215.47
2023-01-04T06:03:13.605Z,99215.81
2023-01-04T06:05:41.895Z,99212.50
2023-01-04T06:08:09.533Z,99211.91
2023-01-04T06:10:38.613Z,99204.88
2023-01-04T06:13:06.376Z,99197.38
2023-01-04T06:15:37.991Z,99191.97
2023-01-04T06:18:13.620Z,99193.03
2023-01-04T06:20:43.059Z,99189.19
2023-01-04T06:23:10.724Z,99190.28
2023-01-04T06:25:39.910Z,99183.75
2023-01-04T06:28:07.835Z,99189.19
2023-01-04T06:30:36.551Z,99181.09
2023-01-04T06:33:04.232Z,99168.13
2023-01-04T06:35:31.927Z,99170.28
2023-01-04T06:37:59.544Z,99164.06
2023-01-04T06:40:27.272Z,99158.88
2023-01-04T06:42:56.533Z,99155.66
2023-01-04T06:45:24.209Z,99157.00
2023-01-04T06:47:51.825Z,99158.88
2023-01-04T06:50:19.681Z,99151.78
2023-01-04T06:52:47.362Z,99153.41
2023-01-04T06:55:14.966Z,99154.56
2023-01-04T06:57:42.678Z,99147.00
2023-01-04T07:00:13.995Z,99145.91
2023-01-04T07:03:14.144Z,99149.34
2023-01-04T07:05:29.683Z,99144.19
2023-01-04T07:08:05.729Z,99134.75
2023-01-04T07:10:35.792Z,99135.50
2023-01-04T07:13:03.761Z,99129.03
2023-01-04T07:15:38.617Z,99135.56
2023-01-04T07:18:07.577Z,99129.72
2023-01-04T07:20:35.234Z,99127.72
2023-01-04T07:23:02.910Z,99123.69
2023-01-04T07:25:30.536Z,99127.88
2023-01-04T07:27:58.262Z,99122.25
2023-01-04T07:30:25.956Z,99111.19
2023-01-04T07:32:55.814Z,99105.22
2023-01-04T07:35:24.258Z,99109.50
2023-01-04T07:37:57.933Z,99103.75
2023-01-04T07:40:26.947Z,99104.03
2023-01-04T07:43:00.652Z,99097.41
2023-01-04T07:45:28.577Z,99108.84
2023-01-04T07:47:58.777Z,99102.22
2023-01-04T07:50:26.424Z,99100.91
2023-01-04T07:52:54.355Z,99096.22
2023-01-04T07:55:22.063Z,99101.16
2023-01-04T07:57:49.731Z,99091.84
2023-01-04T08:00:17.958Z,99095.31
2023-01-04T08:02:45.751Z,99091.75
2023-01-04T08:05:14.997Z,99090.03
2023-01-04T08:07:42.881Z,99088.47
2023-01-04T08:10:10.844Z,99097.06
2023-01-04T08:12:38.507Z,99098.09
2023-01-04T08:15:07.218Z,99092.31
2023-01-04T08:17:35.218Z,99081.63
2023-01-04T08:20:02.919Z,99087.63
2023-01-04T08:22:31.925Z,99084.63
2023-01-04T08:24:59.666Z,99077.22
2023-01-04T08:27:27.384Z,99072.34
2023-01-04T08:29:55.070Z,99071.47
2023-01-04T08:32:22.772Z,99075.41
2023-01-04T08:34:50.438Z,99066.28
2023-01-04T08:37:18.207Z,99055.97
2023-01-04T08:39:49.589Z,99055.56
2023-01-04T08:42:26.645Z,99063.00
2023-01-04T08:45:00.870Z,99043.69
2023-01-04T08:47:29.149Z,99029.78
2023-01-04T08:49:57.293Z,99028.97
2023-01-04T08:52:25.008Z,99016.97
2023-01-04T08:54:54.406Z,99008.75
2023-01-04T08:57:22.059Z,99009.63
2023-01-04T08:59:49.704Z,99009.78
2023-01-04T09:02:23.555Z,99004.09
2023-01-04T09:04:52.039Z,99004.31
2023-01-04T09:07:20.092Z,98996.38
2023-01-04T09:09:47.762Z,98999.47
2023-01-04T09:12:16.787Z,98993.31
2023-01-04T09:14:44.680Z,98998.94
2023-01-04T09:17:12.320Z,99004.63
2023-01-04T09:19:39.981Z,98998.78
2023-01-04T09:22:07.768Z,99001.19
2023-01-04T09:24:35.489Z,99003.53
2023-01-04T09:27:04.679Z,98998.91
2023-01-04T09:29:33.739Z,98995.31
2023-01-04T09:32:01.451Z,98994.63
2023-01-04T09:34:29.342Z,98993.50
2023-01-04T09:36:57.058Z,98991.72
2023-01-04T09:39:26.239Z,98982.06
2023-01-04T09:41:58.130Z,98993.22
2023-01-04T09:47:39.897Z,98981.69
2023-01-04T09:50:14.569Z,98984.88
2023-01-04T09:52:52.490Z,98990.13
2023-01-04T09:55:37.359Z,98986.91
2023-01-04T09:58:17.669Z,99002.75
2023-01-04T10:00:50.931Z,98995.09
2023-01-04T10:03:23.685Z,98984.38
2023-01-04T10:05:53.651Z,98981.38
2023-01-04T10:08:21.538Z,98970.44
2023-01-04T10:10:57.973Z,98973.50
2023-01-04T10:13:53.186Z,98965.78
2023-01-04T10:21:13.430Z,98958.97
2023-01-04T10:22:42.459Z,98960.47
2023-01-04T10:25:25.108Z,98944.56
2023-01-04T10:28:06.998Z,98951.25
2023-01-04T10:30:43.328Z,98960.69
2023-01-04T10:33:24.516Z,98935.56
2023-01-04T10:35:53.119Z,98927.72
2023-01-04T10:38:25.721Z,98931.09
2023-01-04T10:40:56.171Z,98914.63
2023-01-04T10:44:11.579Z,98921.31
2023-01-04T10:46:30.829Z,98916.22
2023-01-04T10:49:07.741Z,98915.34
2023-01-04T10:51:40.685Z,98904.47
2023-01-04T10:54:17.457Z,98896.94
2023-01-04T10:56:51.357Z,98890.72
2023-01-04T10:59:24.363Z,98894.13
2023-01-04T11:01:57.578Z,98889.50
2023-01-04T11:04:36.325Z,98885.53
2023-01-04T11:07:11.479Z,98890.47
2023-01-04T11:09:43.547Z,98884.44
2023-01-04T11:12:14.596Z,98885.75
2023-01-04T11:14:42.765Z,98881.28
2023-01-04T11:17:12.799Z,98871.38
2023-01-04T11:19:43.377Z,98880.00
2023-01-04T11:22:17.975Z,98876.03
2023-01-04T11:25:24.580Z,98862.88
2023-01-04T11:27:45.907Z,98870.75
2023-01-04T11:30:19.860Z,98871.72
2023-01-04T11:32:53.933Z,98870.47
2023-01-04T11:35:50.929Z,98865.38
2023-01-04T11:38:20.237Z,98865.84
2023-01-04T11:40:59.647Z,98863.16
2023-01-04T11:43:28.679Z,98850.84
2023-01-04T11:45:59.422Z,98848.91
2023-01-04T11:48:36.889Z,98849.25
2023-01-04T11:51:10.126Z,98834.22
2023-01-04T11:53:41.613Z,98833.72
2023-01-04T11:56:22.429Z,98829.25
2023-01-04T11:59:11.846Z,98819.97
2023-01-04T12:01:41.635Z,98817.41
2023-01-04T12:04:17.835Z,98823.19
2023-01-04T12:06:52.001Z,98814.53
2023-01-04T12:09:21.393Z,98804.63
2023-01-04T12:11:51.217Z,98815.34
2023-01-04T12:14:25.624Z,98790.69
2023-01-04T12:16:58.862Z,98793.72
2023-01-04T12:19:28.037Z,98783.94
2023-01-04T12:21:59.581Z,98772.88
2023-01-04T12:24:29.640Z,98775.59
2023-01-04T12:26:58.314Z,98775.28
2023-01-04T12:29:56.783Z,98775.59
2023-01-04T12:32:51.573Z,98767.88
2023-01-04T12:36:01.925Z,98765.31
2023-01-04T12:39:21.007Z,98773.03
2023-01-04T12:42:22.188Z,98764.00
2023-01-04T12:45:23.700Z,98759.69
2023-01-04T12:48:10.655Z,98760.28
2023-01-04T12:51:37.204Z,98748.88
2023-01-04T12:54:24.100Z,98754.13
2023-01-04T12:57:25.619Z,98734.44
2023-01-04T12:59:57.912Z,98730.44
2023-01-04T13:02:27.708Z,98722.91
2023-01-04T13:05:25.825Z,98724.03
2023-01-04T13:07:50.212Z,98728.19
2023-01-04T13:10:29.882Z,98712.00
2023-01-04T13:13:13.477Z,98702.53
2023-01-04T13:15:53.694Z,98709.56
2023-01-04T13:18:35.373Z,98696.91
2023-01-04T13:21:05.521Z,98695.16
2023-01-04T13:23:33.353Z,98683.63
2023-01-04T13:26:29.026Z,98686.59
2023-01-04T13:29:18.342Z,98693.22
2023-01-04T13:31:52.786Z,98703.59
2023-01-04T13:34:23.898Z,98712.09
2023-01-04T13:36:58.925Z,98714.34
2023-01-04T13:39:27.263Z,98699.44
2023-01-04T13:41:56.048Z,98709.91
2023-01-04T13:45:17.797Z,98702.84
2023-01-04T13:47:37.446Z,98700.25
2023-01-04T13:50:06.741Z,98701.41
2023-01-04T13:53:05.504Z,98693.22
2023-01-04T13:55:28.057Z,98690.94
2023-01-04T13:57:59.333Z,98663.88
2023-01-04T14:00:34.653Z,98671.84
2023-01-04T14:03:22.395Z,98651.94
2023-01-04T14:05:54.212Z,98651.97
2023-01-04T14:08:31.194Z,98655.31
2023-01-04T14:10:58.936Z,98660.78
2023-01-04T14:13:26.909Z,98658.50
2023-01-04T14:16:14.010Z,98662.38
2023-01-04T14:18:41.919Z,98653.72
2023-01-04T14:21:17.230Z,98639.75
2023-01-04T14:23:44.963Z,98669.91
2023-01-04T14:26:30.718Z,98659.00
2023-01-04T14:28:58.386Z,98667.16
2023-01-04T14:31:37.372Z,98662.19
2023-01-04T14:34:14.425Z,98670.03
2023-01-04T14:36:44.103Z,98664.13
2023-01-04T14:39:19.496Z,98655.59
2023-01-04T14:41:59.577Z,98649.81
2023-01-04T14:44:30.735Z,98652.56
2023-01-04T14:47:01.461Z,98655.59
2023-01-04T14:49:30.064Z,98656.25
2023-01-04T14:51:59.743Z,98650.81
2023-01-04T14:54:29.428Z,98651.06
2023-01-04T14:56:58.684Z,98660.41
2023-01-04T14:59:28.584Z,98653.34
2023-01-04T15:01:57.861Z,98648.56
2023-01-04T15:04:27.023Z,98646.78
2023-01-04T15:06:57.178Z,98643.91
2023-01-04T15:09:25.469Z,98639.25
2023-01-04T15:11:53.181Z,98634.25
2023-01-04T15:14:20.928Z,98637.50
2023-01-04T15:16:48.965Z,98627.25
2023-01-04T15:19:17.115Z,98625.50
2023-01-04T15:21:46.381Z,98624.59
2023-01-04T15:24:14.046Z,98615.50
2023-01-04T15:26:41.657Z,98613.63
2023-01-04T15:29:09.844Z,98613.66
2023-01-04T15:31:40.320Z,98605.94
2023-01-04T15:34:08.783Z,98597.34
2023-01-04T15:36:38.615Z,98602.47
2023-01-04T15:39:08.529Z,98612.13
2023-01-04T15:41:53.780Z,98599.94
2023-01-04T15:44:21.467Z,98600.22
2023-01-04T15:46:51.135Z,98607.28
2023-01-04T15:49:18.932Z,98603.59
2023-01-04T15:51:47.034Z,98601.56
2023-01-04T15:54:17.171Z,98604.06
2023-01-04T15:56:44.929Z,98602.94
2023-01-04T15:59:13.697Z,98594.13
2023-01-04T16:01:41.906Z,98579.25
2023-01-04T16:04:11.575Z,98580.34
2023-01-04T16:06:40.213Z,98589.16
2023-01-04T16:09:08.303Z,98572.19
2023-01-04T16:11:57.396Z,98578.75
2023-01-04T16:14:25.025Z,98569.47
2023-01-04T16:16:52.824Z,98568.66
2023-01-04T16:19:20.519Z,98567.56
2023-01-04T16:21:48.188Z,98558.28
2023-01-04T16:24:44.902Z,98557.94
2023-01-04T16:27:06.194Z,98555.69
2023-01-04T16:29:33.862Z,98544.09
2023-01-04T16:32:01.633Z,98557.41
2023-01-04T16:34:29.344Z,98556.81
2023-01-04T16:36:56.981Z,98548.34
2023-01-04T16:39:57.253Z,98555.84
2023-01-04T16:42:13.605Z,98564.78
2023-01-04T16:44:41.574Z,98557.94
2023-01-04T16:47:09.317Z,98568.81
2023-01-04T16:49:37.048Z,98554.72
2023-01-04T16:52:06.673Z,98560.66
2023-01-04T16:54:34.431Z,98567.88
2023-01-04T16:57:02.069Z,98560.97
2023-01-04T16:59:31.423Z,98558.25
2023-01-04T17:01:59.308Z,98555.06
2023-01-04T17:04:27.115Z,98550.41
2023-01-04T17:06:58.109Z,98544.00
2023-01-04T17:09:25.827Z,98542.72
2023-01-04T17:15:15.168Z,98550.94
2023-01-04T17:17:40.172Z,98545.78
2023-01-04T17:20:09.014Z,98544.66
2023-01-04T17:22:36.840Z,98545.78
2023-01-04T17:25:05.704Z,98545.78
2023-01-04T17:27:33.383Z,98549.47
2023-01-04T17:30:02.420Z,98543.38
2023-01-04T17:32:30.184Z,98554.41
2023-01-04T17:34:58.714Z,98538.72
2023-01-04T17:37:26.944Z,98537.81
2023-01-04T17:39:54.821Z,98535.38
2023-01-04T17:42:23.079Z,98532.66
2023-01-04T17:44:51.331Z,98524.78
2023-01-04T17:47:20.535Z,98519.19
2023-01-04T17:49:48.217Z,98519.19
2023-01-04T17:52:22.201Z,98520.84
2023-01-04T17:54:52.195Z,98519.56
2023-01-04T17:57:19.999Z,98519.50
2023-01-04T17:59:47.643Z,98523.66
2023-01-04T18:02:15.423Z,98513.72
2023-01-04T18:04:44.503Z,98512.91
2023-01-04T18:09:44.766Z,98507.00
2023-01-04T18:12:12.545Z,98503.34
2023-01-04T18:14:40.197Z,98507.00
2023-01-04T18:17:08.065Z,98497.53
2023-01-04T18:19:36.260Z,98508.31
2023-01-04T18:22:06.457Z,98495.84
2023-01-04T18:24:37.718Z,98508.22
2023-01-04T18:27:23.651Z,98504.25
2023-01-04T18:29:52.950Z,98498.16
2023-01-04T18:32:20.912Z,98503.16
2023-01-04T18:34:48.635Z,98501.69
2023-01-04T18:37:18.573Z,98502.97
2023-01-04T18:39:47.009Z,98502.97
2023-01-04T18:42:14.884Z,98494.66
2023-01-04T18:44:48.003Z,98501.22
2023-01-04T18:47:16.875Z,98498.50
2023-01-04T18:49:44.637Z,98487.28
2023-01-04T18:52:12.496Z,98478.91
2023-01-04T18:54:41.625Z,98485.03
2023-01-04T18:57:09.464Z,98484.09
2023-01-04T18:59:37.146Z,98489.00
2023-01-04T19:02:04.923Z,98483.06
2023-01-04T19:04:34.728Z,98481.13
2023-01-04T19:07:03.181Z,98486.91
2023-01-04T19:09:31.480Z,98487.69
2023-01-04T19:12:00.693Z,98487.47
2023-01-04T19:14:28.403Z,98487.41
2023-01-04T19:16:56.113Z,98482.09
2023-01-04T19:19:24.055Z,98480.00
2023-01-04T19:21:51.836Z,98478.38
2023-01-04T19:24:19.517Z,98490.09
2023-01-04T19:26:47.238Z,98483.44
2023-01-04T19:29:16.294Z,98491.28
2023-01-04T19:31:43.969Z,98479.66
2023-01-04T19:34:12.974Z,98482.69
2023-01-04T19:36:41.087Z,98475.13
2023-01-04T19:39:09.258Z,98479.34
2023-01-04T19:41:38.315Z,98466.19
2023-01-04T19:44:08.037Z,98465.41
2023-01-04T19:46:38.112Z,98478.03
2023-01-04T19:49:10.725Z,98475.88
2023-01-04T19:51:43.718Z,98481.47
2023-01-04T19:54:18.498Z,98457.88
2023-01-04T19:56:51.138Z,98474.03
2023-01-04T19:59:18.950Z,98469.72
2023-01-04T20:01:48.127Z,98476.31
2023-01-04T20:04:16.068Z,98467.94
2023-01-04T20:06:43.829Z,98474.97
2023-01-04T20:09:11.886Z,98484.28
2023-01-04T20:11:39.562Z,98487.59
2023-01-04T20:14:07.409Z,98479.06
2023-01-04T20:16:35.137Z,98491.56
2023-01-04T20:19:04.308Z,98498.63
2023-01-04T20:21:32.088Z,98494.31
2023-01-04T20:24:01.140Z,98500.22
2023-01-04T20:26:29.996Z,98504.88
2023-01-04T20:28:57.693Z,98498.16
2023-01-04T20:31:25.493Z,98504.09
2023-01-04T20:33:53.217Z,98507.28
2023-01-04T20:36:26.196Z,98495.44
2023-01-04T20:38:54.952Z,98494.31
2023-01-04T20:41:24.651Z,98502.47
2023-01-04T20:43:52.270Z,98489.50
2023-01-04T20:46:22.130Z,98489.03
2023-01-04T20:48:50.075Z,98489.84
2023-01-04T20:51:19.529Z,98495.44
2023-01-04T20:53:48.645Z,98505.88
2023-01-04T20:56:18.465Z,98506.66
2023-01-04T20:58:47.261Z,98494.97
2023-01-04T21:01:16.142Z,98493.38
2023-01-04T21:03:44.571Z,98488.25
2023-01-04T21:06:14.982Z,98492.72
2023-01-04T21:08:43.758Z,98483.25
2023-01-04T21:11:14.313Z,98491.34
2023-01-04T21:13:42.395Z,98485.47
2023-01-04T21:16:10.266Z,98482.25
2023-01-04T21:18:38.583Z,98476.16
2023-01-04T21:21:07.060Z,98478.22
2023-01-04T21:23:35.025Z,98475.47
2023-01-04T21:26:07.157Z,98467.75
2023-01-04T21:28:37.116Z,98458.78
2023-01-04T21:31:10.600Z,98466.38
2023-01-04T21:33:38.511Z,98439.97
2023-01-04T21:36:13.885Z,98442.41
2023-01-04T21:38:41.644Z,98443.22
2023-01-04T21:41:10.866Z,98446.16
2023-01-04T21:43:40.088Z,98447.84
2023-01-04T21:46:09.754Z,98445.31
2023-01-04T21:48:38.392Z,98431.69
2023-01-04T21:51:07.380Z,98439.84
2023-01-04T21:53:36.634Z,98438.72
2023-01-04T21:56:07.651Z,98431.16
2023-01-04T21:58:35.760Z,98427.66
2023-01-04T22:01:09.802Z,98425.88
2023-01-04T22:03:37.586Z,98415.69
2023-01-04T22:06:06.135Z,98419.81
2023-01-04T22:08:33.936Z,98423.25
2023-01-04T22:11:02.322Z,98417.13
2023-01-04T22:13:30.210Z,98414.13
2023-01-04T22:15:58.149Z,98420.63
2023-01-04T22:18:27.358Z,98422.00
2023-01-04T22:21:02.506Z,98433.19
2023-01-04T22:23:30.987Z,98449.09
2023-01-04T22:25:59.406Z,98444.56
2023-01-04T22:28:31.669Z,98433.47
2023-01-04T22:31:05.866Z,98434.59
2023-01-04T22:33:35.717Z,98423.47
2023-01-04T22:36:07.294Z,98440.31
2023-01-04T22:38:36.318Z,98424.50
2023-01-04T22:41:07.669Z,98419.50
2023-01-04T22:43:36.433Z,98418.72
2023-01-04T22:46:06.720Z,98418.03
2023-01-04T22:48:36.562Z,98418.97
2023-01-04T22:51:07.648Z,98410.31
2023-01-04T22:53:35.940Z,98398.72
2023-01-04T22:56:23.537Z,98390.88
2023-01-04T22:58:54.912Z,98402.13
2023-01-04T23:01:24.895Z,98399.28
2023-01-04T23:03:55.131Z,98404.84
2023-01-04T23:06:24.783Z,98399.56
2023-01-04T23:08:56.965Z,98405.81
2023-01-04T23:11:25.273Z,98377.13
2023-01-04T23:13:55.541Z,98391.25
2023-01-04T23:16:29.602Z,98386.47
2023-01-04T23:19:01.521Z,98389.66
2023-01-04T23:21:29.772Z,98397.63
2023-01-04T23:23:57.687Z,98404.00
2023-01-04T23:26:27.674Z,98375.78
2023-01-04T23:28:55.726Z,98378.50
2023-01-04T23:31:26.031Z,98383.50
2023-01-04T23:33:56.373Z,98386.69
2023-01-04T23:36:28.575Z,98386.25
2023-01-04T23:38:57.976Z,98378.75
2023-01-04T23:41:44.521Z,98381.69
2023-01-04T23:44:17.740Z,98384.22
2023-01-04T23:46:46.243Z,98374.88
2023-01-04T23:49:14.749Z,98376.91
2023-01-04T23:51:43.881Z,98369.06
2023-01-04T23:54:11.626Z,98384.22
2023-01-04T23:56:39.983Z,98379.09
2023-01-04T23:59:08.632Z,98378.28
